sensor_id;sensor_type;location;lat;lon;timestamp;temperature;humidity
18839;DHT22;9548;56.920;14.804;2022-12-29T00:02:24;5.00;99.90
18839;DHT22;9548;56.920;14.804;2022-12-29T00:04:51;5.00;99.90
18839;DHT22;9548;56.920;14.804;2022-12-29T00:07:18;5.00;99.90
18839;DHT22;9548;56.920;14.804;2022-12-29T00:09:45;4.90;99.90
18839;DHT22;9548;56.920;14.804;2022-12-29T00:12:12;5.00;99.90
18839;DHT22;9548;56.920;14.804;2022-12-29T00:14:40;5.00;99.90
18839;DHT22;9548;56.920;14.804;2022-12-29T00:17:25;4.90;99.90
18839;DHT22;9548;56.920;14.804;2022-12-29T00:19:52;5.00;99.90
18839;DHT22;9548;56.920;14.804;2022-12-29T00:22:36;4.90;99.90
18839;DHT22;9548;56.920;14.804;2022-12-29T00:25:20;5.00;99.90
18839;DHT22;9548;56.920;14.804;2022-12-29T00:28:07;5.00;99.90
18839;DHT22;9548;56.920;14.804;2022-12-29T00:30:53;5.00;99.90
18839;DHT22;9548;56.920;14.804;2022-12-29T00:33:37;5.00;99.90
18839;DHT22;9548;56.920;14.804;2022-12-29T00:36:24;5.00;99.90
18839;DHT22;9548;56.920;14.804;2022-12-29T00:38:54;5.00;99.90
18839;DHT22;9548;56.920;14.804;2022-12-29T00:41:40;5.00;99.90
18839;DHT22;9548;56.920;14.804;2022-12-29T00:44:24;5.00;99.90
18839;DHT22;9548;56.920;14.804;2022-12-29T00:46:53;5.00;99.90
18839;DHT22;9548;56.920;14.804;2022-12-29T00:49:20;5.00;99.90
18839;DHT22;9548;56.920;14.804;2022-12-29T00:52:00;5.00;99.90
18839;DHT22;9548;56.920;14.804;2022-12-29T00:54:28;5.00;99.90
18839;DHT22;9548;56.920;14.804;2022-12-29T00:56:55;5.00;99.90
18839;DHT22;9548;56.920;14.804;2022-12-29T00:59:22;5.00;99.90
18839;DHT22;9548;56.920;14.804;2022-12-29T01:01:50;5.00;99.90
18839;DHT22;9548;56.920;14.804;2022-12-29T01:04:20;5.00;99.90
18839;DHT22;9548;56.920;14.804;2022-12-29T01:06:47;5.00;99.90
18839;DHT22;9548;56.920;14.804;2022-12-29T01:09:14;5.00;99.90
18839;DHT22;9548;56.920;14.804;2022-12-29T01:11:59;5.00;99.90
18839;DHT22;9548;56.920;14.804;2022-12-29T01:14:26;5.00;99.90
18839;DHT22;9548;56.920;14.804;2022-12-29T01:16:54;5.00;99.90
18839;DHT22;9548;56.920;14.804;2022-12-29T01:19:23;5.00;99.90
18839;DHT22;9548;56.920;14.804;2022-12-29T01:21:50;5.00;99.90
18839;DHT22;9548;56.920;14.804;2022-12-29T01:24:18;5.10;99.90
18839;DHT22;9548;56.920;14.804;2022-12-29T01:26:46;5.00;99.90
18839;DHT22;9548;56.920;14.804;2022-12-29T01:29:14;5.00;99.90
18839;DHT22;9548;56.920;14.804;2022-12-29T01:31:40;5.00;99.90
18839;DHT22;9548;56.920;14.804;2022-12-29T01:34:08;5.00;99.90
18839;DHT22;9548;56.920;14.804;2022-12-29T01:36:36;5.00;99.90
18839;DHT22;9548;56.920;14.804;2022-12-29T01:39:03;5.00;99.90
18839;DHT22;9548;56.920;14.804;2022-12-29T01:41:30;5.00;99.90
18839;DHT22;9548;56.920;14.804;2022-12-29T01:43:58;5.00;99.90
18839;DHT22;9548;56.920;14.804;2022-12-29T01:46:29;4.90;99.90
18839;DHT22;9548;56.920;14.804;2022-12-29T01:49:02;5.00;99.90
18839;DHT22;9548;56.920;14.804;2022-12-29T01:51:35;4.90;99.90
18839;DHT22;9548;56.920;14.804;2022-12-29T01:54:09;5.00;99.90
18839;DHT22;9548;56.920;14.804;2022-12-29T01:56:38;5.00;99.90
18839;DHT22;9548;56.920;14.804;2022-12-29T01:59:08;5.00;99.90
18839;DHT22;9548;56.920;14.804;2022-12-29T02:01:37;5.00;99.90
18839;DHT22;9548;56.920;14.804;2022-12-29T02:04:04;5.00;99.90
18839;DHT22;9548;56.920;14.804;2022-12-29T02:06:34;5.00;99.90
18839;DHT22;9548;56.920;14.804;2022-12-29T02:09:03;5.00;99.90
18839;DHT22;9548;56.920;14.804;2022-12-29T02:11:31;5.00;99.90
18839;DHT22;9548;56.920;14.804;2022-12-29T02:13:58;5.00;99.90
18839;DHT22;9548;56.920;14.804;2022-12-29T02:16:42;5.00;99.90
18839;DHT22;9548;56.920;14.804;2022-12-29T02:19:38;5.00;99.90
18839;DHT22;9548;56.920;14.804;2022-12-29T02:22:16;5.00;99.90
18839;DHT22;9548;56.920;14.804;2022-12-29T02:27:52;5.00;99.90
18839;DHT22;9548;56.920;14.804;2022-12-29T02:30:44;5.00;99.90
18839;DHT22;9548;56.920;14.804;2022-12-29T02:33:24;5.00;99.90
18839;DHT22;9548;56.920;14.804;2022-12-29T02:36:00;5.10;99.90
18839;DHT22;9548;56.920;14.804;2022-12-29T02:38:45;5.10;99.90
18839;DHT22;9548;56.920;14.804;2022-12-29T02:41:19;5.10;99.90
18839;DHT22;9548;56.920;14.804;2022-12-29T02:43:52;5.10;99.90
18839;DHT22;9548;56.920;14.804;2022-12-29T02:46:25;5.10;99.90
18839;DHT22;9548;56.920;14.804;2022-12-29T02:49:03;5.10;99.90
18839;DHT22;9548;56.920;14.804;2022-12-29T02:51:35;5.20;99.90
18839;DHT22;9548;56.920;14.804;2022-12-29T02:54:05;5.20;99.90
18839;DHT22;9548;56.920;14.804;2022-12-29T02:56:49;5.10;99.90
18839;DHT22;9548;56.920;14.804;2022-12-29T02:59:17;5.20;99.90
18839;DHT22;9548;56.920;14.804;2022-12-29T03:02:01;5.20;99.90
18839;DHT22;9548;56.920;14.804;2022-12-29T03:05:03;5.20;99.90
18839;DHT22;9548;56.920;14.804;2022-12-29T03:07:39;5.20;99.90
18839;DHT22;9548;56.920;14.804;2022-12-29T03:10:17;5.30;99.90
18839;DHT22;9548;56.920;14.804;2022-12-29T03:12:49;5.30;99.90
18839;DHT22;9548;56.920;14.804;2022-12-29T03:15:42;5.30;99.90
18839;DHT22;9548;56.920;14.804;2022-12-29T03:18:40;5.30;99.90
18839;DHT22;9548;56.920;14.804;2022-12-29T03:21:11;5.30;99.90
18839;DHT22;9548;56.920;14.804;2022-12-29T03:23:43;5.30;99.90
18839;DHT22;9548;56.920;14.804;2022-12-29T03:26:17;5.30;99.90
18839;DHT22;9548;56.920;14.804;2022-12-29T03:28:47;5.40;99.90
18839;DHT22;9548;56.920;14.804;2022-12-29T03:31:17;5.40;99.90
18839;DHT22;9548;56.920;14.804;2022-12-29T03:33:47;5.40;99.90
18839;DHT22;9548;56.920;14.804;2022-12-29T03:36:20;5.30;99.90
18839;DHT22;9548;56.920;14.804;2022-12-29T03:38:55;5.40;99.90
18839;DHT22;9548;56.920;14.804;2022-12-29T03:41:27;5.40;99.90
18839;DHT22;9548;56.920;14.804;2022-12-29T03:43:55;5.40;99.90
18839;DHT22;9548;56.920;14.804;2022-12-29T03:46:22;5.40;99.90
18839;DHT22;9548;56.920;14.804;2022-12-29T03:48:50;5.40;99.90
18839;DHT22;9548;56.920;14.804;2022-12-29T03:51:17;5.50;99.90
18839;DHT22;9548;56.920;14.804;2022-12-29T03:53:44;5.50;99.90
18839;DHT22;9548;56.920;14.804;2022-12-29T03:56:11;5.40;99.90
18839;DHT22;9548;56.920;14.804;2022-12-29T03:58:38;5.50;99.90
18839;DHT22;9548;56.920;14.804;2022-12-29T04:01:05;5.50;99.90
18839;DHT22;9548;56.920;14.804;2022-12-29T04:03:31;5.50;99.90
18839;DHT22;9548;56.920;14.804;2022-12-29T04:06:00;5.50;99.90
18839;DHT22;9548;56.920;14.804;2022-12-29T04:08:27;5.50;99.90
18839;DHT22;9548;56.920;14.804;2022-12-29T04:10:53;5.50;99.90
18839;DHT22;9548;56.920;14.804;2022-12-29T04:13:20;5.60;99.90
18839;DHT22;9548;56.920;14.804;2022-12-29T04:15:50;5.60;99.90
18839;DHT22;9548;56.920;14.804;2022-12-29T04:18:20;5.60;99.90
18839;DHT22;9548;56.920;14.804;2022-12-29T04:20:47;5.50;99.90
18839;DHT22;9548;56.920;14.804;2022-12-29T04:23:28;5.60;99.90
18839;DHT22;9548;56.920;14.804;2022-12-29T04:25:55;5.60;99.90
18839;DHT22;9548;56.920;14.804;2022-12-29T04:28:22;5.60;99.90
18839;DHT22;9548;56.920;14.804;2022-12-29T04:30:49;5.60;99.90
18839;DHT22;9548;56.920;14.804;2022-12-29T04:33:17;5.60;99.90
18839;DHT22;9548;56.920;14.804;2022-12-29T04:35:44;5.60;99.90
18839;DHT22;9548;56.920;14.804;2022-12-29T04:38:11;5.60;99.90
18839;DHT22;9548;56.920;14.804;2022-12-29T04:40:41;5.70;99.90
18839;DHT22;9548;56.920;14.804;2022-12-29T04:43:08;5.70;99.90
18839;DHT22;9548;56.920;14.804;2022-12-29T04:45:35;5.70;99.90
18839;DHT22;9548;56.920;14.804;2022-12-29T04:48:03;5.70;99.90
18839;DHT22;9548;56.920;14.804;2022-12-29T04:50:30;5.70;99.90
18839;DHT22;9548;56.920;14.804;2022-12-29T04:52:56;5.70;99.90
18839;DHT22;9548;56.920;14.804;2022-12-29T04:55:23;5.70;99.90
18839;DHT22;9548;56.920;14.804;2022-12-29T04:57:52;5.70;99.90
18839;DHT22;9548;56.920;14.804;2022-12-29T05:00:19;5.70;99.90
18839;DHT22;9548;56.920;14.804;2022-12-29T05:02:46;5.70;99.90
18839;DHT22;9548;56.920;14.804;2022-12-29T05:05:13;5.70;99.90
18839;DHT22;9548;56.920;14.804;2022-12-29T05:07:40;5.70;99.90
18839;DHT22;9548;56.920;14.804;2022-12-29T05:10:08;5.70;99.90
18839;DHT22;9548;56.920;14.804;2022-12-29T05:12:37;5.70;99.90
18839;DHT22;9548;56.920;14.804;2022-12-29T05:15:07;5.70;99.90
18839;DHT22;9548;56.920;14.804;2022-12-29T05:17:35;5.80;99.90
18839;DHT22;9548;56.920;14.804;2022-12-29T05:20:03;5.70;99.90
18839;DHT22;9548;56.920;14.804;2022-12-29T05:22:30;5.80;99.90
18839;DHT22;9548;56.920;14.804;2022-12-29T05:24:57;5.80;99.90
18839;DHT22;9548;56.920;14.804;2022-12-29T05:27:24;5.80;99.90
18839;DHT22;9548;56.920;14.804;2022-12-29T05:29:51;5.80;99.90
18839;DHT22;9548;56.920;14.804;2022-12-29T05:32:19;5.80;99.90
18839;DHT22;9548;56.920;14.804;2022-12-29T05:34:46;5.80;99.90
18839;DHT22;9548;56.920;14.804;2022-12-29T05:37:13;5.70;99.90
18839;DHT22;9548;56.920;14.804;2022-12-29T05:39:40;5.80;99.90
18839;DHT22;9548;56.920;14.804;2022-12-29T05:42:07;5.80;99.90
18839;DHT22;9548;56.920;14.804;2022-12-29T05:44:34;5.80;99.90
18839;DHT22;9548;56.920;14.804;2022-12-29T05:47:01;5.80;99.90
18839;DHT22;9548;56.920;14.804;2022-12-29T05:49:29;5.80;99.90
18839;DHT22;9548;56.920;14.804;2022-12-29T05:51:56;5.80;99.90
18839;DHT22;9548;56.920;14.804;2022-12-29T05:54:23;5.80;99.90
18839;DHT22;9548;56.920;14.804;2022-12-29T05:56:50;5.80;99.90
18839;DHT22;9548;56.920;14.804;2022-12-29T05:59:17;5.80;99.90
18839;DHT22;9548;56.920;14.804;2022-12-29T06:01:44;5.80;99.90
18839;DHT22;9548;56.920;14.804;2022-12-29T06:04:11;5.80;99.90
18839;DHT22;9548;56.920;14.804;2022-12-29T06:06:39;5.80;99.90
18839;DHT22;9548;56.920;14.804;2022-12-29T06:09:06;5.80;99.90
18839;DHT22;9548;56.920;14.804;2022-12-29T06:11:33;5.80;99.90
18839;DHT22;9548;56.920;14.804;2022-12-29T06:14:00;5.80;99.90
18839;DHT22;9548;56.920;14.804;2022-12-29T06:16:27;5.80;99.90
18839;DHT22;9548;56.920;14.804;2022-12-29T06:18:53;5.80;99.90
18839;DHT22;9548;56.920;14.804;2022-12-29T06:21:21;5.80;99.90
18839;DHT22;9548;56.920;14.804;2022-12-29T06:23:49;5.80;99.90
18839;DHT22;9548;56.920;14.804;2022-12-29T06:26:16;5.80;99.90
18839;DHT22;9548;56.920;14.804;2022-12-29T06:28:43;5.80;99.90
18839;DHT22;9548;56.920;14.804;2022-12-29T06:31:10;5.80;99.90
18839;DHT22;9548;56.920;14.804;2022-12-29T06:33:37;5.80;99.90
18839;DHT22;9548;56.920;14.804;2022-12-29T06:36:04;5.80;99.90
18839;DHT22;9548;56.920;14.804;2022-12-29T06:38:31;5.80;99.90
18839;DHT22;9548;56.920;14.804;2022-12-29T06:40:59;5.80;99.90
18839;DHT22;9548;56.920;14.804;2022-12-29T06:43:26;5.80;99.90
18839;DHT22;9548;56.920;14.804;2022-12-29T06:45:53;5.80;99.90
18839;DHT22;9548;56.920;14.804;2022-12-29T06:48:20;5.80;99.90
18839;DHT22;9548;56.920;14.804;2022-12-29T06:50:47;5.80;99.90
18839;DHT22;9548;56.920;14.804;2022-12-29T06:53:14;5.80;99.90
18839;DHT22;9548;56.920;14.804;2022-12-29T06:55:42;5.80;99.90
18839;DHT22;9548;56.920;14.804;2022-12-29T06:58:10;5.80;99.90
18839;DHT22;9548;56.920;14.804;2022-12-29T07:00:37;5.80;99.90
18839;DHT22;9548;56.920;14.804;2022-12-29T07:03:05;5.80;99.90
18839;DHT22;9548;56.920;14.804;2022-12-29T07:05:31;5.80;99.90
18839;DHT22;9548;56.920;14.804;2022-12-29T07:07:58;5.90;99.90
18839;DHT22;9548;56.920;14.804;2022-12-29T07:10:25;5.80;99.90
18839;DHT22;9548;56.920;14.804;2022-12-29T07:12:52;5.90;99.90
18839;DHT22;9548;56.920;14.804;2022-12-29T07:15:21;5.90;99.90
18839;DHT22;9548;56.920;14.804;2022-12-29T07:17:47;5.90;99.90
18839;DHT22;9548;56.920;14.804;2022-12-29T07:20:15;5.90;99.90
18839;DHT22;9548;56.920;14.804;2022-12-29T07:22:42;5.90;99.90
18839;DHT22;9548;56.920;14.804;2022-12-29T07:25:09;5.90;99.90
18839;DHT22;9548;56.920;14.804;2022-12-29T07:27:36;5.90;99.90
18839;DHT22;9548;56.920;14.804;2022-12-29T07:30:04;5.90;99.90
18839;DHT22;9548;56.920;14.804;2022-12-29T07:32:33;6.00;99.90
18839;DHT22;9548;56.920;14.804;2022-12-29T07:35:01;6.00;99.90
18839;DHT22;9548;56.920;14.804;2022-12-29T07:37:29;6.00;99.90
18839;DHT22;9548;56.920;14.804;2022-12-29T07:39:55;6.00;99.90
18839;DHT22;9548;56.920;14.804;2022-12-29T07:42:22;6.00;99.90
18839;DHT22;9548;56.920;14.804;2022-12-29T07:44:49;6.00;99.90
18839;DHT22;9548;56.920;14.804;2022-12-29T07:47:16;6.10;99.90
18839;DHT22;9548;56.920;14.804;2022-12-29T07:49:44;6.00;99.90
18839;DHT22;9548;56.920;14.804;2022-12-29T07:52:11;6.10;99.90
18839;DHT22;9548;56.920;14.804;2022-12-29T07:54:38;6.10;99.90
18839;DHT22;9548;56.920;14.804;2022-12-29T07:57:06;6.10;99.90
18839;DHT22;9548;56.920;14.804;2022-12-29T07:59:32;6.10;99.90
18839;DHT22;9548;56.920;14.804;2022-12-29T08:01:59;6.10;99.90
18839;DHT22;9548;56.920;14.804;2022-12-29T08:04:26;6.10;99.90
18839;DHT22;9548;56.920;14.804;2022-12-29T08:06:54;6.10;99.90
18839;DHT22;9548;56.920;14.804;2022-12-29T08:09:21;6.20;99.90
18839;DHT22;9548;56.920;14.804;2022-12-29T08:11:48;6.20;99.90
18839;DHT22;9548;56.920;14.804;2022-12-29T08:14:15;6.20;99.90
18839;DHT22;9548;56.920;14.804;2022-12-29T08:16:42;6.20;99.90
18839;DHT22;9548;56.920;14.804;2022-12-29T08:19:10;6.20;99.90
18839;DHT22;9548;56.920;14.804;2022-12-29T08:21:38;6.20;99.90
18839;DHT22;9548;56.920;14.804;2022-12-29T08:24:08;6.20;99.90
18839;DHT22;9548;56.920;14.804;2022-12-29T08:26:35;6.30;99.90
18839;DHT22;9548;56.920;14.804;2022-12-29T08:29:02;6.30;99.90
18839;DHT22;9548;56.920;14.804;2022-12-29T08:31:29;6.30;99.90
18839;DHT22;9548;56.920;14.804;2022-12-29T08:33:56;6.30;99.90
18839;DHT22;9548;56.920;14.804;2022-12-29T08:36:23;6.30;99.90
18839;DHT22;9548;56.920;14.804;2022-12-29T08:38:50;6.40;99.90
18839;DHT22;9548;56.920;14.804;2022-12-29T08:41:18;6.40;99.90
18839;DHT22;9548;56.920;14.804;2022-12-29T08:43:46;6.40;99.90
18839;DHT22;9548;56.920;14.804;2022-12-29T08:46:13;6.40;99.90
18839;DHT22;9548;56.920;14.804;2022-12-29T08:48:40;6.50;99.90
18839;DHT22;9548;56.920;14.804;2022-12-29T08:51:07;6.50;99.90
18839;DHT22;9548;56.920;14.804;2022-12-29T08:53:34;6.50;99.90
18839;DHT22;9548;56.920;14.804;2022-12-29T08:56:02;6.50;99.90
18839;DHT22;9548;56.920;14.804;2022-12-29T08:58:31;6.50;99.90
18839;DHT22;9548;56.920;14.804;2022-12-29T09:00:58;6.50;99.90
18839;DHT22;9548;56.920;14.804;2022-12-29T09:03:26;6.50;99.90
18839;DHT22;9548;56.920;14.804;2022-12-29T09:05:54;6.60;99.90
18839;DHT22;9548;56.920;14.804;2022-12-29T09:08:21;6.60;99.90
18839;DHT22;9548;56.920;14.804;2022-12-29T09:10:49;6.60;99.90
18839;DHT22;9548;56.920;14.804;2022-12-29T09:13:16;6.60;99.90
18839;DHT22;9548;56.920;14.804;2022-12-29T09:15:44;6.70;99.90
18839;DHT22;9548;56.920;14.804;2022-12-29T09:18:12;6.60;99.90
18839;DHT22;9548;56.920;14.804;2022-12-29T09:20:39;6.70;99.90
18839;DHT22;9548;56.920;14.804;2022-12-29T09:23:06;6.70;99.90
18839;DHT22;9548;56.920;14.804;2022-12-29T09:25:33;6.70;99.90
18839;DHT22;9548;56.920;14.804;2022-12-29T09:28:00;6.70;99.90
18839;DHT22;9548;56.920;14.804;2022-12-29T09:30:31;6.70;99.90
18839;DHT22;9548;56.920;14.804;2022-12-29T09:32:59;6.70;99.90
18839;DHT22;9548;56.920;14.804;2022-12-29T09:35:26;6.70;99.90
18839;DHT22;9548;56.920;14.804;2022-12-29T09:37:53;6.70;99.90
18839;DHT22;9548;56.920;14.804;2022-12-29T09:40:26;6.70;99.90
18839;DHT22;9548;56.920;14.804;2022-12-29T09:43:20;6.70;99.90
18839;DHT22;9548;56.920;14.804;2022-12-29T09:45:57;6.80;99.90
18839;DHT22;9548;56.920;14.804;2022-12-29T09:48:30;6.80;99.90
18839;DHT22;9548;56.920;14.804;2022-12-29T09:51:00;6.80;99.90
18839;DHT22;9548;56.920;14.804;2022-12-29T09:53:31;6.80;99.90
18839;DHT22;9548;56.920;14.804;2022-12-29T09:56:05;6.80;99.90
18839;DHT22;9548;56.920;14.804;2022-12-29T09:58:40;6.90;99.90
18839;DHT22;9548;56.920;14.804;2022-12-29T10:01:21;6.90;99.90
18839;DHT22;9548;56.920;14.804;2022-12-29T10:03:55;6.90;99.90
18839;DHT22;9548;56.920;14.804;2022-12-29T10:06:24;6.90;99.90
18839;DHT22;9548;56.920;14.804;2022-12-29T10:09:00;6.90;99.90
18839;DHT22;9548;56.920;14.804;2022-12-29T10:11:42;6.90;99.90
18839;DHT22;9548;56.920;14.804;2022-12-29T10:14:21;6.90;99.90
18839;DHT22;9548;56.920;14.804;2022-12-29T10:17:00;6.90;99.90
18839;DHT22;9548;56.920;14.804;2022-12-29T10:19:51;6.90;99.90
18839;DHT22;9548;56.920;14.804;2022-12-29T10:22:31;6.90;99.90
18839;DHT22;9548;56.920;14.804;2022-12-29T10:25:02;6.90;99.90
18839;DHT22;9548;56.920;14.804;2022-12-29T10:27:35;7.00;99.90
18839;DHT22;9548;56.920;14.804;2022-12-29T10:30:03;7.00;99.90
18839;DHT22;9548;56.920;14.804;2022-12-29T10:32:34;7.00;99.90
18839;DHT22;9548;56.920;14.804;2022-12-29T10:35:10;7.00;99.90
18839;DHT22;9548;56.920;14.804;2022-12-29T10:37:43;7.00;99.90
18839;DHT22;9548;56.920;14.804;2022-12-29T10:40:17;7.00;99.90
18839;DHT22;9548;56.920;14.804;2022-12-29T10:42:47;7.10;99.90
18839;DHT22;9548;56.920;14.804;2022-12-29T10:45:18;7.10;99.90
18839;DHT22;9548;56.920;14.804;2022-12-29T10:47:52;7.10;99.90
18839;DHT22;9548;56.920;14.804;2022-12-29T10:50:21;7.10;99.90
18839;DHT22;9548;56.920;14.804;2022-12-29T10:52:49;7.20;99.90
18839;DHT22;9548;56.920;14.804;2022-12-29T10:55:21;7.20;99.90
18839;DHT22;9548;56.920;14.804;2022-12-29T10:57:49;7.20;99.90
18839;DHT22;9548;56.920;14.804;2022-12-29T11:00:18;7.20;99.90
18839;DHT22;9548;56.920;14.804;2022-12-29T11:03:06;7.20;99.90
18839;DHT22;9548;56.920;14.804;2022-12-29T11:05:40;7.20;99.90
18839;DHT22;9548;56.920;14.804;2022-12-29T11:08:10;7.20;99.90
18839;DHT22;9548;56.920;14.804;2022-12-29T11:10:40;7.20;99.90
18839;DHT22;9548;56.920;14.804;2022-12-29T11:13:16;7.20;99.90
18839;DHT22;9548;56.920;14.804;2022-12-29T11:15:44;7.30;99.90
18839;DHT22;9548;56.920;14.804;2022-12-29T11:18:21;7.40;99.90
18839;DHT22;9548;56.920;14.804;2022-12-29T11:20:51;7.40;99.90
18839;DHT22;9548;56.920;14.804;2022-12-29T11:23:29;7.40;99.90
18839;DHT22;9548;56.920;14.804;2022-12-29T11:26:11;7.40;99.90
18839;DHT22;9548;56.920;14.804;2022-12-29T11:28:42;7.40;99.90
18839;DHT22;9548;56.920;14.804;2022-12-29T11:31:10;7.30;99.90
18839;DHT22;9548;56.920;14.804;2022-12-29T11:33:38;7.30;99.90
18839;DHT22;9548;56.920;14.804;2022-12-29T11:36:10;7.30;99.90
18839;DHT22;9548;56.920;14.804;2022-12-29T11:38:40;7.30;99.90
18839;DHT22;9548;56.920;14.804;2022-12-29T11:41:11;7.30;99.90
18839;DHT22;9548;56.920;14.804;2022-12-29T11:43:43;7.30;99.90
18839;DHT22;9548;56.920;14.804;2022-12-29T11:46:16;7.30;99.90
18839;DHT22;9548;56.920;14.804;2022-12-29T11:48:43;7.30;99.90
18839;DHT22;9548;56.920;14.804;2022-12-29T11:51:12;7.40;99.90
18839;DHT22;9548;56.920;14.804;2022-12-29T11:53:50;7.40;99.90
18839;DHT22;9548;56.920;14.804;2022-12-29T11:56:20;7.40;99.90
18839;DHT22;9548;56.920;14.804;2022-12-29T11:58:49;7.30;99.90
18839;DHT22;9548;56.920;14.804;2022-12-29T12:01:23;7.40;99.90
18839;DHT22;9548;56.920;14.804;2022-12-29T12:04:00;7.40;99.90
18839;DHT22;9548;56.920;14.804;2022-12-29T12:06:31;7.40;99.90
18839;DHT22;9548;56.920;14.804;2022-12-29T12:09:02;7.40;99.90
18839;DHT22;9548;56.920;14.804;2022-12-29T12:11:36;7.50;99.90
18839;DHT22;9548;56.920;14.804;2022-12-29T12:14:10;7.60;99.90
18839;DHT22;9548;56.920;14.804;2022-12-29T12:16:41;7.50;99.90
18839;DHT22;9548;56.920;14.804;2022-12-29T12:19:13;7.60;99.90
18839;DHT22;9548;56.920;14.804;2022-12-29T12:21:48;7.60;99.90
18839;DHT22;9548;56.920;14.804;2022-12-29T12:24:36;7.60;99.90
18839;DHT22;9548;56.920;14.804;2022-12-29T12:27:11;7.60;99.90
18839;DHT22;9548;56.920;14.804;2022-12-29T12:29:45;7.60;99.90
18839;DHT22;9548;56.920;14.804;2022-12-29T12:32:17;7.50;99.90
18839;DHT22;9548;56.920;14.804;2022-12-29T12:34:48;7.50;99.90
18839;DHT22;9548;56.920;14.804;2022-12-29T12:37:36;7.50;99.90
18839;DHT22;9548;56.920;14.804;2022-12-29T12:40:29;7.50;99.90
18839;DHT22;9548;56.920;14.804;2022-12-29T12:43:14;7.50;99.90
18839;DHT22;9548;56.920;14.804;2022-12-29T12:45:50;7.50;99.90
18839;DHT22;9548;56.920;14.804;2022-12-29T12:48:47;7.50;99.90
18839;DHT22;9548;56.920;14.804;2022-12-29T12:51:24;7.50;99.90
18839;DHT22;9548;56.920;14.804;2022-12-29T12:54:09;7.50;99.90
18839;DHT22;9548;56.920;14.804;2022-12-29T12:56:51;7.50;99.90
18839;DHT22;9548;56.920;14.804;2022-12-29T12:59:33;7.50;99.90
18839;DHT22;9548;56.920;14.804;2022-12-29T13:02:15;7.60;99.90
18839;DHT22;9548;56.920;14.804;2022-12-29T13:07:59;7.60;99.90
18839;DHT22;9548;56.920;14.804;2022-12-29T13:10:42;7.70;99.90
18839;DHT22;9548;56.920;14.804;2022-12-29T13:13:40;7.80;99.90
18839;DHT22;9548;56.920;14.804;2022-12-29T13:16:15;7.80;99.90
18839;DHT22;9548;56.920;14.804;2022-12-29T13:18:50;7.80;99.90
18839;DHT22;9548;56.920;14.804;2022-12-29T13:21:29;7.80;99.90
18839;DHT22;9548;56.920;14.804;2022-12-29T13:24:05;7.70;99.90
18839;DHT22;9548;56.920;14.804;2022-12-29T13:26:39;7.60;99.90
18839;DHT22;9548;56.920;14.804;2022-12-29T13:29:17;7.60;99.90
18839;DHT22;9548;56.920;14.804;2022-12-29T13:31:50;7.50;99.90
18839;DHT22;9548;56.920;14.804;2022-12-29T13:34:27;7.50;99.90
18839;DHT22;9548;56.920;14.804;2022-12-29T13:36:59;7.50;99.90
18839;DHT22;9548;56.920;14.804;2022-12-29T13:39:32;7.50;99.90
18839;DHT22;9548;56.920;14.804;2022-12-29T13:42:02;7.50;99.90
18839;DHT22;9548;56.920;14.804;2022-12-29T13:44:34;7.50;99.90
18839;DHT22;9548;56.920;14.804;2022-12-29T13:47:05;7.50;99.90
18839;DHT22;9548;56.920;14.804;2022-12-29T13:49:35;7.50;99.90
18839;DHT22;9548;56.920;14.804;2022-12-29T13:52:09;7.50;99.90
18839;DHT22;9548;56.920;14.804;2022-12-29T13:54:43;7.50;99.90
18839;DHT22;9548;56.920;14.804;2022-12-29T13:57:35;7.60;99.90
18839;DHT22;9548;56.920;14.804;2022-12-29T14:00:12;7.50;99.90
18839;DHT22;9548;56.920;14.804;2022-12-29T14:02:50;7.50;99.90
18839;DHT22;9548;56.920;14.804;2022-12-29T14:05:31;7.50;99.90
18839;DHT22;9548;56.920;14.804;2022-12-29T14:08:00;7.50;99.90
18839;DHT22;9548;56.920;14.804;2022-12-29T14:10:29;7.40;99.90
18839;DHT22;9548;56.920;14.804;2022-12-29T14:13:12;7.30;99.90
18839;DHT22;9548;56.920;14.804;2022-12-29T14:15:40;7.20;99.90
18839;DHT22;9548;56.920;14.804;2022-12-29T14:18:14;7.20;99.90
18839;DHT22;9548;56.920;14.804;2022-12-29T14:20:54;7.10;99.90
18839;DHT22;9548;56.920;14.804;2022-12-29T14:23:36;7.10;99.90
18839;DHT22;9548;56.920;14.804;2022-12-29T14:26:13;7.20;99.90
18839;DHT22;9548;56.920;14.804;2022-12-29T14:28:42;7.20;99.90
18839;DHT22;9548;56.920;14.804;2022-12-29T14:31:37;7.20;99.90
18839;DHT22;9548;56.920;14.804;2022-12-29T14:34:25;7.20;99.90
18839;DHT22;9548;56.920;14.804;2022-12-29T14:36:54;7.20;99.90
18839;DHT22;9548;56.920;14.804;2022-12-29T14:39:32;7.20;99.90
18839;DHT22;9548;56.920;14.804;2022-12-29T14:42:00;7.20;99.90
18839;DHT22;9548;56.920;14.804;2022-12-29T14:44:28;7.20;99.90
18839;DHT22;9548;56.920;14.804;2022-12-29T14:46:58;7.20;99.90
18839;DHT22;9548;56.920;14.804;2022-12-29T14:49:27;7.20;99.90
18839;DHT22;9548;56.920;14.804;2022-12-29T14:52:05;7.20;99.90
18839;DHT22;9548;56.920;14.804;2022-12-29T14:54:50;7.20;99.90
18839;DHT22;9548;56.920;14.804;2022-12-29T14:57:29;7.10;99.90
18839;DHT22;9548;56.920;14.804;2022-12-29T15:00:05;7.00;99.90
18839;DHT22;9548;56.920;14.804;2022-12-29T15:02:35;7.00;99.90
18839;DHT22;9548;56.920;14.804;2022-12-29T15:05:15;6.90;99.90
18839;DHT22;9548;56.920;14.804;2022-12-29T15:07:47;6.90;99.90
18839;DHT22;9548;56.920;14.804;2022-12-29T15:10:17;6.80;99.90
18839;DHT22;9548;56.920;14.804;2022-12-29T15:12:50;6.70;99.90
18839;DHT22;9548;56.920;14.804;2022-12-29T15:15:22;6.60;99.90
18839;DHT22;9548;56.920;14.804;2022-12-29T15:17:49;6.50;99.90
18839;DHT22;9548;56.920;14.804;2022-12-29T15:20:22;6.50;99.90
18839;DHT22;9548;56.920;14.804;2022-12-29T15:22:53;6.40;99.90
18839;DHT22;9548;56.920;14.804;2022-12-29T15:25:21;6.40;99.90
18839;DHT22;9548;56.920;14.804;2022-12-29T15:27:51;6.40;99.90
18839;DHT22;9548;56.920;14.804;2022-12-29T15:30:20;6.40;99.90
18839;DHT22;9548;56.920;14.804;2022-12-29T15:32:48;6.50;99.90
18839;DHT22;9548;56.920;14.804;2022-12-29T15:35:28;6.50;99.90
18839;DHT22;9548;56.920;14.804;2022-12-29T15:37:55;6.50;99.90
18839;DHT22;9548;56.920;14.804;2022-12-29T15:40:24;6.60;99.90
18839;DHT22;9548;56.920;14.804;2022-12-29T15:43:07;6.70;99.90
18839;DHT22;9548;56.920;14.804;2022-12-29T15:45:37;6.70;99.90
18839;DHT22;9548;56.920;14.804;2022-12-29T15:48:05;6.70;99.90
18839;DHT22;9548;56.920;14.804;2022-12-29T15:50:35;6.80;99.90
18839;DHT22;9548;56.920;14.804;2022-12-29T15:53:09;6.80;99.90
18839;DHT22;9548;56.920;14.804;2022-12-29T15:55:38;6.90;99.90
18839;DHT22;9548;56.920;14.804;2022-12-29T15:58:18;6.90;99.90
18839;DHT22;9548;56.920;14.804;2022-12-29T16:00:49;6.90;99.90
18839;DHT22;9548;56.920;14.804;2022-12-29T16:03:19;6.90;99.90
18839;DHT22;9548;56.920;14.804;2022-12-29T16:05:51;6.90;99.90
18839;DHT22;9548;56.920;14.804;2022-12-29T16:08:27;6.90;99.90
18839;DHT22;9548;56.920;14.804;2022-12-29T16:10:55;6.90;99.90
18839;DHT22;9548;56.920;14.804;2022-12-29T16:13:26;6.90;99.90
18839;DHT22;9548;56.920;14.804;2022-12-29T16:16:00;6.90;99.90
18839;DHT22;9548;56.920;14.804;2022-12-29T16:18:30;6.90;99.90
18839;DHT22;9548;56.920;14.804;2022-12-29T16:21:00;6.90;99.90